createdAt,value
2023-04-05T00:00:01.559Z,0.0
2023-04-05T00:05:00.758Z,0.0
2023-04-05T00:10:00.748Z,2.9
2023-04-05T00:15:00.606Z,4.0
2023-04-05T00:20:00.674Z,0.0
2023-04-05T00:25:00.649Z,0.0
2023-04-05T00:30:00.663Z,0.0
2023-04-05T00:35:00.597Z,0.0
2023-04-05T00:40:00.678Z,0.0
2023-04-05T00:45:00.601Z,0.0
2023-04-05T00:50:00.664Z,0.0
2023-04-05T00:55:00.693Z,0.0
2023-04-05T01:00:00.711Z,1.4
2023-04-05T01:05:00.606Z,2.2
2023-04-05T01:10:00.631Z,1.4
2023-04-05T01:15:00.630Z,0.0
2023-04-05T01:20:00.772Z,0.0
2023-04-05T01:25:00.627Z,1.8
2023-04-05T01:30:00.657Z,0.0
2023-04-05T01:35:00.766Z,0.0
2023-04-05T01:40:00.693Z,0.0
2023-04-05T01:45:00.607Z,0.0
2023-04-05T01:50:00.671Z,0.0
2023-04-05T01:55:00.656Z,0.0
2023-04-05T02:00:00.636Z,0.0
2023-04-05T02:05:00.592Z,0.0
2023-04-05T02:10:00.738Z,0.0
2023-04-05T02:15:00.603Z,0.0
2023-04-05T02:20:00.679Z,0.0
2023-04-05T02:25:00.649Z,0.0
2023-04-05T02:30:00.806Z,0.0
2023-04-05T02:35:00.659Z,0.0
2023-04-05T02:40:00.593Z,1.4
2023-04-05T02:45:00.614Z,2.5
2023-04-05T02:50:00.687Z,4.0
2023-04-05T02:55:00.661Z,3.2
2023-04-05T03:00:00.682Z,3.2
2023-04-05T03:05:00.604Z,3.2
2023-04-05T03:10:00.648Z,2.5
2023-04-05T03:15:00.633Z,0.0
2023-04-05T03:20:00.646Z,0.0
2023-04-05T03:25:00.672Z,1.4
2023-04-05T03:30:00.683Z,0.0
2023-04-05T03:35:00.660Z,0.0
2023-04-05T03:40:00.685Z,0.0
2023-04-05T03:45:00.655Z,0.0
2023-04-05T03:50:00.644Z,0.0
2023-04-05T03:55:00.635Z,0.0
2023-04-05T04:00:00.603Z,0.0
2023-04-05T04:05:00.772Z,0.0
2023-04-05T04:10:00.762Z,0.0
2023-04-05T04:15:00.668Z,0.0
2023-04-05T04:20:00.669Z,0.0
2023-04-05T04:25:00.652Z,0.0
2023-04-05T04:30:00.667Z,0.0
2023-04-05T04:35:00.619Z,0.0
2023-04-05T04:40:00.954Z,0.0
2023-04-05T04:45:00.636Z,0.0
2023-04-05T04:50:00.602Z,0.0
2023-04-05T04:55:00.637Z,0.0
2023-04-05T05:00:00.676Z,0.0
2023-04-05T05:05:00.670Z,0.0
2023-04-05T05:10:00.750Z,0.0
2023-04-05T05:15:00.670Z,0.0
2023-04-05T05:20:00.622Z,0.0
2023-04-05T05:25:00.647Z,2.9
2023-04-05T05:30:00.685Z,0.0
2023-04-05T05:35:00.603Z,0.0
2023-04-05T05:40:00.739Z,3.2
2023-04-05T05:45:00.670Z,4.7
2023-04-05T05:50:00.662Z,4.0
2023-04-05T05:55:00.594Z,4.0
2023-04-05T06:00:00.668Z,1.4
2023-04-05T06:05:00.734Z,2.2
2023-04-05T06:10:00.632Z,4.7
2023-04-05T06:15:00.607Z,0.0
2023-04-05T06:20:00.676Z,3.2
2023-04-05T06:25:00.622Z,0.0
2023-04-05T06:30:00.711Z,1.4
2023-04-05T06:35:00.719Z,6.5
2023-04-05T06:40:00.617Z,4.7
2023-04-05T06:45:01.066Z,4.0
2023-04-05T06:50:00.650Z,3.6
2023-04-05T06:55:00.631Z,6.8
2023-04-05T07:00:00.792Z,2.5
2023-04-05T07:05:00.769Z,1.8
2023-04-05T07:10:00.767Z,4.7
2023-04-05T07:15:00.680Z,6.5
2023-04-05T07:20:00.712Z,3.2
2023-04-05T07:25:00.752Z,8.6
2023-04-05T07:30:00.675Z,6.5
2023-04-05T07:35:00.709Z,2.9
2023-04-05T07:40:00.723Z,4.0
2023-04-05T07:45:00.620Z,4.0
2023-04-05T07:50:00.691Z,6.1
2023-04-05T07:55:00.658Z,5.8
2023-04-05T08:00:01.062Z,2.2
2023-04-05T08:05:00.838Z,2.2
2023-04-05T08:10:00.968Z,9.4
2023-04-05T08:15:00.628Z,2.2
2023-04-05T08:20:00.672Z,0.0
2023-04-05T08:25:00.789Z,4.7
2023-04-05T08:30:00.709Z,0.0
2023-04-05T08:35:00.702Z,10.8
2023-04-05T08:40:00.681Z,10.1
2023-04-05T08:45:00.662Z,3.2
2023-04-05T08:50:00.671Z,11.2
2023-04-05T08:55:00.608Z,6.5
2023-04-05T09:00:00.692Z,7.6
2023-04-05T09:05:00.609Z,10.8
2023-04-05T09:10:00.749Z,7.6
2023-04-05T09:15:00.648Z,2.2
2023-04-05T09:20:00.652Z,3.2
2023-04-05T09:25:00.609Z,3.2
2023-04-05T09:30:00.667Z,2.5
2023-04-05T09:35:00.700Z,5.0
2023-04-05T09:40:00.635Z,4.0
2023-04-05T09:45:00.655Z,4.7
2023-04-05T09:50:00.677Z,10.1
2023-04-05T09:55:00.840Z,8.3
2023-04-05T10:00:00.670Z,3.6
2023-04-05T10:05:00.672Z,6.1
2023-04-05T10:10:00.719Z,7.6
2023-04-05T10:15:00.651Z,3.2
2023-04-05T10:20:00.666Z,8.6
2023-04-05T10:25:00.610Z,10.8
2023-04-05T10:30:00.704Z,9.0
2023-04-05T10:35:00.663Z,10.8
2023-04-05T10:40:00.628Z,2.5
2023-04-05T10:45:00.622Z,10.4
2023-04-05T10:50:00.795Z,6.1
2023-04-05T10:55:00.684Z,9.0
2023-04-05T11:00:00.759Z,4.3
2023-04-05T11:05:00.731Z,5.8
2023-04-05T11:10:00.650Z,1.4
2023-04-05T11:15:00.649Z,7.2
2023-04-05T11:20:00.636Z,8.3
2023-04-05T11:25:00.666Z,7.6
2023-04-05T11:30:00.683Z,7.9
2023-04-05T11:35:00.659Z,7.6
2023-04-05T11:40:00.686Z,8.3
2023-04-05T11:45:00.689Z,11.5
2023-04-05T11:50:00.635Z,16.6
2023-04-05T11:55:03.904Z,16.9
2023-04-05T12:00:00.664Z,13.0
2023-04-05T12:05:00.967Z,10.8
2023-04-05T12:10:00.662Z,12.6
2023-04-05T12:15:00.669Z,6.1
2023-04-05T12:20:00.790Z,8.6
2023-04-05T12:25:00.621Z,12.6
2023-04-05T12:30:00.765Z,5.4
2023-04-05T12:35:00.723Z,9.0
2023-04-05T12:40:00.692Z,11.2
2023-04-05T12:45:00.872Z,8.6
2023-04-05T12:50:00.649Z,8.3
2023-04-05T12:55:00.616Z,9.4
2023-04-05T13:00:00.660Z,9.7
2023-04-05T13:05:00.691Z,7.6
2023-04-05T13:10:00.693Z,7.9
2023-04-05T13:15:00.724Z,5.4
2023-04-05T13:20:00.699Z,4.3
2023-04-05T13:25:00.675Z,2.5
2023-04-05T13:30:00.679Z,7.6
2023-04-05T13:35:00.745Z,7.2
2023-04-05T13:40:00.785Z,3.6
2023-04-05T13:45:00.773Z,1.4
2023-04-05T13:50:00.654Z,4.7
2023-04-05T13:55:03.710Z,4.7
2023-04-05T14:00:01.266Z,7.2
2023-04-05T14:05:00.679Z,9.4
2023-04-05T14:10:00.726Z,13.0
2023-04-05T14:15:00.671Z,13.0
2023-04-05T14:20:00.704Z,12.6
2023-04-05T14:25:00.652Z,10.4
2023-04-05T14:30:00.719Z,9.0
2023-04-05T14:35:00.652Z,10.1
2023-04-05T14:40:00.677Z,9.7
2023-04-05T14:45:00.657Z,8.6
2023-04-05T14:50:00.663Z,10.8
2023-04-05T14:55:00.838Z,7.6
2023-04-05T15:00:00.658Z,6.8
2023-04-05T15:05:01.154Z,4.3
2023-04-05T15:10:00.973Z,5.8
2023-04-05T15:15:00.644Z,6.1
2023-04-05T15:20:00.668Z,1.8
2023-04-05T15:25:00.654Z,1.8
2023-04-05T15:30:00.709Z,1.8
2023-04-05T15:35:00.710Z,0.0
2023-04-05T15:40:04.220Z,2.5
2023-04-05T15:45:00.716Z,0.0
2023-04-05T15:50:00.708Z,3.6
2023-04-05T15:55:00.798Z,0.0
2023-04-05T16:00:00.645Z,2.2
2023-04-05T16:05:00.725Z,0.0
2023-04-05T16:10:00.769Z,1.4
2023-04-05T16:15:00.640Z,0.0
2023-04-05T16:20:00.886Z,2.9
2023-04-05T16:25:00.701Z,5.4
2023-04-05T16:30:00.646Z,5.8
2023-04-05T16:35:00.636Z,8.3
2023-04-05T16:40:00.681Z,8.3
2023-04-05T16:45:00.758Z,5.0
2023-04-05T16:50:00.710Z,10.8
2023-04-05T16:55:00.701Z,8.6
2023-04-05T17:00:00.698Z,8.3
2023-04-05T17:05:00.694Z,9.4
2023-04-05T17:10:00.713Z,10.4
2023-04-05T17:15:00.658Z,3.2
2023-04-05T17:20:00.624Z,11.2
2023-04-05T17:25:00.594Z,3.6
2023-04-05T17:30:00.661Z,9.7
2023-04-05T17:35:00.920Z,2.5
2023-04-05T17:40:00.742Z,3.6
2023-04-05T17:45:00.685Z,9.4
2023-04-05T17:50:00.693Z,4.0
2023-04-05T17:55:00.751Z,5.8
2023-04-05T18:00:00.669Z,4.0
2023-04-05T18:05:00.679Z,2.9
2023-04-05T18:10:00.684Z,1.8
2023-04-05T18:15:00.795Z,5.0
2023-04-05T18:20:00.673Z,0.0
2023-04-05T18:25:00.625Z,2.2
2023-04-05T18:30:00.666Z,2.5
2023-04-05T18:35:00.624Z,0.0
2023-04-05T18:40:00.648Z,3.6
2023-04-05T18:45:00.652Z,0.0
2023-04-05T18:50:00.790Z,5.8
2023-04-05T18:55:00.667Z,8.3
2023-04-05T19:00:00.689Z,3.6
2023-04-05T19:05:00.996Z,1.4
2023-04-05T19:10:00.670Z,0.0
2023-04-05T19:15:01.018Z,5.0
2023-04-05T19:20:00.722Z,1.8
2023-04-05T19:25:00.669Z,0.0
2023-04-05T19:30:00.663Z,0.0
2023-04-05T19:35:01.029Z,2.5
2023-04-05T19:40:00.660Z,0.0
2023-04-05T19:45:00.858Z,0.0
2023-04-05T19:50:01.038Z,0.0
2023-04-05T19:55:00.642Z,0.0
2023-04-05T20:00:00.664Z,0.0
2023-04-05T20:05:00.628Z,0.0
2023-04-05T20:10:00.649Z,0.0
2023-04-05T20:15:00.607Z,3.2
2023-04-05T20:20:00.808Z,0.0
2023-04-05T20:25:00.606Z,0.0
2023-04-05T20:30:00.665Z,0.0
2023-04-05T20:35:00.668Z,0.0
2023-04-05T20:40:00.618Z,2.2
2023-04-05T20:45:00.689Z,0.0
2023-04-05T20:50:00.738Z,0.0
2023-04-05T20:55:00.602Z,0.0
2023-04-05T21:00:00.821Z,0.0
2023-04-05T21:05:00.665Z,0.0
2023-04-05T21:10:00.627Z,0.0
2023-04-05T21:15:00.722Z,0.0
2023-04-05T21:20:00.654Z,0.0
2023-04-05T21:25:00.636Z,0.0
2023-04-05T21:30:00.669Z,0.0
2023-04-05T21:35:00.592Z,0.0
2023-04-05T21:40:00.683Z,0.0
2023-04-05T21:45:00.651Z,0.0
2023-04-05T21:50:00.644Z,0.0
2023-04-05T21:55:00.596Z,0.0
2023-04-05T22:00:00.645Z,0.0
2023-04-05T22:05:00.647Z,0.0
2023-04-05T22:10:00.645Z,0.0
2023-04-05T22:15:00.639Z,0.0
2023-04-05T22:20:00.637Z,0.0
2023-04-05T22:25:00.689Z,0.0
2023-04-05T22:30:00.732Z,0.0
2023-04-05T22:35:00.676Z,2.5
2023-04-05T22:40:00.673Z,3.6
2023-04-05T22:45:00.671Z,4.0
2023-04-05T22:50:00.723Z,4.7
2023-04-05T22:55:00.695Z,2.2
2023-04-05T23:00:00.706Z,2.9
2023-04-05T23:05:00.997Z,3.6
2023-04-05T23:10:00.659Z,0.0
2023-04-05T23:15:00.660Z,2.2
2023-04-05T23:20:00.704Z,2.2
2023-04-05T23:25:00.694Z,4.7
2023-04-05T23:30:00.608Z,5.0
2023-04-05T23:35:00.605Z,2.9
2023-04-05T23:40:00.690Z,1.4
2023-04-05T23:45:00.733Z,5.8
2023-04-05T23:50:00.631Z,3.2
2023-04-05T23:55:00.889Z,6.5
